Time;durP1;ratioP1;P1;durP2;ratioP2;P2;SDS_P1;SDS_P2;PMS_P1;PMS_P2;Temp;Humidity;BMP_temperature;BMP_pressure;BME280_temperature;BME280_humidity;BME280_pressure;Samples;Min_cycle;Max_cycle;Signal;HPM_P1;HPM_P2
2023/10/04 00:01:15;;;;;;;;;;;;;;;11.64;100.00;102354.25;5113861;28;19964;-45
2023/10/04 00:03:41;;;;;;;;;;;;;;;11.59;100.00;102345.38;5114129;28;19911;-48
2023/10/04 00:06:07;;;;;;;;;;;;;;;11.53;100.00;102346.84;5113359;28;19937;-45
2023/10/04 00:08:33;;;;;;;;;;;;;;;11.49;100.00;102344.94;5113600;28;19907;-44
2023/10/04 00:10:59;;;;;;;;;;;;;;;11.48;100.00;102348.31;5113955;28;19958;-48
2023/10/04 00:13:24;;;;;;;;;;;;;;;11.46;100.00;102347.34;5113033;28;19936;-46
2023/10/04 00:15:50;;;;;;;;;;;;;;;11.46;100.00;102356.78;5113897;28;19959;-47
2023/10/04 00:18:15;;;;;;;;;;;;;;;11.45;100.00;102353.34;5113723;28;19992;-49
2023/10/04 00:20:40;;;;;;;;;;;;;;;11.46;100.00;102360.25;5112950;28;19958;-48
2023/10/04 00:23:06;;;;;;;;;;;;;;;11.48;100.00;102357.78;5113653;28;20066;-48
2023/10/04 00:25:33;;;;;;;;;;;;;;;11.48;100.00;102358.63;5113637;28;20353;-47
2023/10/04 00:27:58;;;;;;;;;;;;;;;11.48;100.00;102358.63;5112976;28;20002;-49
2023/10/04 00:30:26;;;;;;;;;;;;;;;11.48;100.00;102348.31;5113180;28;20007;-46
2023/10/04 00:32:53;;;;;;;;;;;;;;;11.51;100.00;102352.75;5113689;28;19938;-47
2023/10/04 00:35:19;;;;;;;;;;;;;;;11.50;100.00;102351.88;5112453;28;19914;-48
2023/10/04 00:37:44;;;;;;;;;;;;;;;11.50;100.00;102354.44;5113643;28;19918;-49
2023/10/04 00:40:15;;;;;;;;;;;;;;;11.48;100.00;102353.47;5113746;28;20002;-48
2023/10/04 00:42:40;;;;;;;;;;;;;;;11.48;100.00;102350.03;5112907;28;19965;-48
2023/10/04 00:45:06;;;;;;;;;;;;;;;11.49;100.00;102351.78;5113533;28;19911;-47
2023/10/04 00:47:32;;;;;;;;;;;;;;;11.49;100.00;102352.69;5112780;28;20002;-46
2023/10/04 00:50:00;;;;;;;;;;;;;;;11.48;100.00;102345.72;5113240;28;19912;-49
2023/10/04 00:52:25;;;;;;;;;;;;;;;11.46;100.00;102360.25;5113386;28;20009;-45
2023/10/04 00:54:51;;;;;;;;;;;;;;;11.45;100.00;102357.59;5112807;28;20384;-47
2023/10/04 00:57:16;;;;;;;;;;;;;;;11.45;100.00;102362.75;5113089;28;20279;-47
2023/10/04 00:59:42;;;;;;;;;;;;;;;11.45;100.00;102368.81;5113409;28;19962;-45
2023/10/04 01:02:08;;;;;;;;;;;;;;;11.46;100.00;102369.69;5112676;28;19912;-45
2023/10/04 01:04:33;;;;;;;;;;;;;;;11.48;100.00;102374.13;5113017;28;19911;-45
2023/10/04 01:06:59;;;;;;;;;;;;;;;11.50;100.00;102372.53;5113471;28;19911;-48
2023/10/04 01:09:24;;;;;;;;;;;;;;;11.50;100.00;102377.69;5116526;28;19919;-48
2023/10/04 01:11:49;;;;;;;;;;;;;;;11.50;100.00;102381.94;5117348;28;19919;-48
2023/10/04 01:14:18;;;;;;;;;;;;;;;11.49;100.00;102375.91;5116943;28;19915;-48
2023/10/04 01:16:44;;;;;;;;;;;;;;;11.49;100.00;102375.00;5116465;28;19912;-48
2023/10/04 01:19:14;;;;;;;;;;;;;;;11.48;100.00;102384.47;5117044;28;19961;-47
2023/10/04 01:21:39;;;;;;;;;;;;;;;11.48;100.00;102388.75;5117369;28;19911;-49
2023/10/04 01:24:08;;;;;;;;;;;;;;;11.47;100.00;102387.84;5116284;28;19908;-48
2023/10/04 01:26:36;;;;;;;;;;;;;;;11.46;100.00;102383.47;5116922;28;19918;-47
2023/10/04 01:29:07;;;;;;;;;;;;;;;11.47;100.00;102393.00;5117157;28;19939;-48
2023/10/04 01:31:33;;;;;;;;;;;;;;;11.46;100.00;102386.06;5115714;28;19918;-49
2023/10/04 01:33:58;;;;;;;;;;;;;;;11.46;100.00;102390.34;5116872;28;20036;-44
2023/10/04 01:36:24;;;;;;;;;;;;;;;11.45;100.00;102383.41;5116673;28;19994;-48
2023/10/04 01:38:49;;;;;;;;;;;;;;;11.45;100.00;102384.31;5116119;28;19918;-48
2023/10/04 01:41:14;;;;;;;;;;;;;;;11.46;100.00;102386.06;5116598;28;19950;-48
2023/10/04 01:43:40;;;;;;;;;;;;;;;11.47;100.00;102387.84;5116575;28;19912;-46
2023/10/04 01:46:05;;;;;;;;;;;;;;;11.47;100.00;102392.13;5115840;28;19912;-47
2023/10/04 01:48:31;;;;;;;;;;;;;;;11.46;100.00;102392.94;5116213;28;19919;-48
2023/10/04 01:50:56;;;;;;;;;;;;;;;11.46;100.00;102398.09;5115798;28;19977;-45
2023/10/04 01:53:23;;;;;;;;;;;;;;;11.46;100.00;102387.78;5116169;28;20332;-48
2023/10/04 01:55:48;;;;;;;;;;;;;;;11.46;100.00;102398.97;5116619;28;19911;-44
2023/10/04 01:58:15;;;;;;;;;;;;;;;11.45;100.00;102394.66;5115213;28;20428;-46
2023/10/04 02:00:41;;;;;;;;;;;;;;;11.45;100.00;102386.91;5116360;28;20026;-45
2023/10/04 02:03:08;;;;;;;;;;;;;;;11.49;100.00;102398.25;5116163;28;20470;-48
2023/10/04 02:05:37;;;;;;;;;;;;;;;11.50;100.00;102393.19;5115254;28;20343;-48
2023/10/04 02:08:07;;;;;;;;;;;;;;;11.52;100.00;102390.66;5116293;28;19911;-48
2023/10/04 02:10:32;;;;;;;;;;;;;;;11.50;100.00;102390.59;5115560;28;20316;-48
2023/10/04 02:12:57;;;;;;;;;;;;;;;11.49;100.00;102387.91;5115436;28;19911;-48
2023/10/04 02:15:23;;;;;;;;;;;;;;;11.47;100.00;102385.25;5115700;28;20305;-49
2023/10/04 02:17:53;;;;;;;;;;;;;;;11.47;100.00;102381.81;5115938;28;19955;-48
2023/10/04 02:20:21;;;;;;;;;;;;;;;11.47;100.00;102387.84;5114035;28;19912;-48
2023/10/04 02:22:47;;;;;;;;;;;;;;;11.46;100.00;102386.06;5116090;28;19958;-48
2023/10/04 02:25:13;;;;;;;;;;;;;;;11.46;100.00;102386.06;5115573;28;19955;-46
2023/10/04 02:27:39;;;;;;;;;;;;;;;11.45;100.00;102384.31;5115141;28;19908;-48
2023/10/04 02:30:13;;;;;;;;;;;;;;;11.44;100.00;102382.53;5115686;28;19958;-49
2023/10/04 02:32:41;;;;;;;;;;;;;;;11.44;100.00;102376.47;5115984;28;19915;-49
2023/10/04 02:35:06;;;;;;;;;;;;;;;11.44;100.00;102377.38;5114770;28;20379;-48
2023/10/04 02:37:32;;;;;;;;;;;;;;;11.44;100.00;102377.38;5115387;28;19912;-45
2023/10/04 02:39:57;;;;;;;;;;;;;;;11.43;100.00;102383.34;5115701;28;19911;-45
2023/10/04 02:42:23;;;;;;;;;;;;;;;11.42;100.00;102391.88;5114552;28;20421;-46
2023/10/04 02:44:48;;;;;;;;;;;;;;;11.45;100.00;102389.47;5115581;28;20422;-49
2023/10/04 02:47:13;;;;;;;;;;;;;;;11.45;100.00;102396.31;5114280;28;19912;-47
2023/10/04 02:49:38;;;;;;;;;;;;;;;11.44;100.00;102391.97;5115386;28;20006;-48
2023/10/04 02:52:06;;;;;;;;;;;;;;;11.42;100.00;102391.88;5115382;28;19911;-48
2023/10/04 02:54:32;;;;;;;;;;;;;;;11.40;100.00;102393.53;5114232;28;19919;-44
2023/10/04 02:56:58;;;;;;;;;;;;;;;11.39;100.00;102398.59;5115070;28;20271;-48
2023/10/04 02:59:24;;;;;;;;;;;;;;;11.37;100.00;102401.09;5114919;28;19965;-47
2023/10/04 03:01:50;;;;;;;;;;;;;;;11.34;100.00;102400.94;5114481;28;19911;-45
2023/10/04 03:04:15;;;;;;;;;;;;;;;11.34;100.00;102401.81;5114870;28;20382;-44
2023/10/04 03:06:41;;;;;;;;;;;;;;;11.31;100.00;102396.50;5115039;28;19916;-46
2023/10/04 03:09:06;;;;;;;;;;;;;;;11.31;100.00;102393.03;5114325;28;19937;-49
2023/10/04 03:11:32;;;;;;;;;;;;;;;11.29;100.00;102400.69;5114620;28;19911;-48
2023/10/04 03:13:59;;;;;;;;;;;;;;;11.27;100.00;102404.00;5114848;28;19916;-48
2023/10/04 03:16:25;;;;;;;;;;;;;;;11.23;100.00;102402.94;5114116;28;20275;-45
2023/10/04 03:18:50;;;;;;;;;;;;;;;11.18;100.00;102410.47;5115084;28;19952;-45
2023/10/04 03:21:20;;;;;;;;;;;;;;;11.15;100.00;102420.63;5114577;28;19918;-47
2023/10/04 03:23:45;;;;;;;;;;;;;;;11.14;100.00;102428.28;5114019;28;19958;-48
2023/10/04 03:26:14;;;;;;;;;;;;;;;11.08;100.00;102418.53;5114538;28;19981;-46
2023/10/04 03:28:40;;;;;;;;;;;;;;;11.06;100.00;102419.25;5114635;28;20006;-48
2023/10/04 03:31:14;;;;;;;;;;;;;;;11.00;100.00;102418.13;5113762;28;19998;-48
2023/10/04 03:33:39;;;;;;;;;;;;;;;10.96;100.00;102425.63;5114852;28;20378;-46
2023/10/04 03:36:04;;;;;;;;;;;;;;;10.92;100.00;102421.97;5114679;28;19974;-48
2023/10/04 03:38:33;;;;;;;;;;;;;;;10.90;100.00;102428.78;5113414;28;19911;-47
2023/10/04 03:40:58;;;;;;;;;;;;;;;10.85;100.00;102410.44;5114400;28;19918;-48
2023/10/04 03:43:27;;;;;;;;;;;;;;;10.82;100.00;102410.31;5113556;28;19907;-44
2023/10/04 03:45:53;;;;;;;;;;;;;;;10.79;100.00;102412.69;5114341;28;20002;-48
2023/10/04 03:48:18;;;;;;;;;;;;;;;10.74;100.00;102406.41;5114279;28;19991;-48
2023/10/04 03:50:45;;;;;;;;;;;;;;;10.70;100.00;102400.22;5113536;28;19973;-47
2023/10/04 03:53:10;;;;;;;;;;;;;;;10.69;100.00;102405.25;5114350;28;19916;-48
2023/10/04 03:55:36;;;;;;;;;;;;;;;10.66;100.00;102410.28;5114112;28;19912;-44
2023/10/04 03:58:02;;;;;;;;;;;;;;;10.63;100.00;102392.94;5113248;28;19924;-45
2023/10/04 04:00:30;;;;;;;;;;;;;;;10.62;100.00;102398.03;5113872;28;19969;-47
2023/10/04 04:02:55;;;;;;;;;;;;;;;10.62;100.00;102400.59;5114030;28;20378;-47
2023/10/04 04:05:21;;;;;;;;;;;;;;;10.60;100.00;102397.94;5112968;28;19915;-48
2023/10/04 04:07:48;;;;;;;;;;;;;;;10.58;100.00;102403.81;5113982;28;19912;-46
2023/10/04 04:10:16;;;;;;;;;;;;;;;10.58;100.00;102403.81;5113386;28;19937;-49
2023/10/04 04:12:42;;;;;;;;;;;;;;;10.52;100.00;102402.69;5113231;28;20010;-45
2023/10/04 04:15:08;;;;;;;;;;;;;;;10.49;100.00;102399.91;5113816;28;19949;-48
2023/10/04 04:17:34;;;;;;;;;;;;;;;10.47;100.00;102404.13;5113587;28;19918;-48
2023/10/04 04:19:59;;;;;;;;;;;;;;;10.46;100.00;102399.75;5113049;28;19912;-49
2023/10/04 04:22:25;;;;;;;;;;;;;;;10.44;100.00;102403.06;5113505;28;20399;-47
2023/10/04 04:24:51;;;;;;;;;;;;;;;10.42;100.00;102397.81;5113750;28;19919;-49
2023/10/04 04:27:22;;;;;;;;;;;;;;;10.38;100.00;102401.91;5112538;28;19912;-48
2023/10/04 04:29:54;;;;;;;;;;;;;;;10.38;100.00;102399.34;5113904;28;19956;-48
2023/10/04 04:32:26;;;;;;;;;;;;;;;10.37;100.00;102401.84;5113173;28;20309;-49
2023/10/04 04:34:53;;;;;;;;;;;;;;;10.33;100.00;102386.97;5112746;28;20427;-45
2023/10/04 04:37:19;;;;;;;;;;;;;;;10.31;100.00;102384.28;5113536;28;20017;-46
2023/10/04 04:39:44;;;;;;;;;;;;;;;10.30;100.00;102386.78;5112813;28;19951;-48
2023/10/04 04:42:15;;;;;;;;;;;;;;;10.27;100.00;102386.63;5114358;28;19915;-47
2023/10/04 04:44:42;;;;;;;;;;;;;;;10.27;100.00;102396.94;5118181;28;19911;-47
2023/10/04 04:47:10;;;;;;;;;;;;;;;10.24;100.00;102392.50;5117009;28;19946;-49
2023/10/04 04:49:35;;;;;;;;;;;;;;;10.22;100.00;102394.09;5117469;28;19911;-46
2023/10/04 04:52:05;;;;;;;;;;;;;;;10.21;100.00;102384.59;5117891;28;19911;-46
2023/10/04 04:54:30;;;;;;;;;;;;;;;10.19;100.00;102389.66;5116570;28;20339;-48
2023/10/04 04:56:55;;;;;;;;;;;;;;;10.18;100.00;102387.88;5117599;28;20391;-48
2023/10/04 04:59:23;;;;;;;;;;;;;;;10.17;100.00;102386.13;5117340;28;20031;-48
2023/10/04 05:01:50;;;;;;;;;;;;;;;10.16;100.00;102392.06;5116721;28;19926;-47
2023/10/04 05:04:18;;;;;;;;;;;;;;;10.16;100.00;102389.50;5117016;28;20394;-47
2023/10/04 05:06:43;;;;;;;;;;;;;;;10.14;100.00;102392.78;5117666;28;19927;-48
2023/10/04 05:09:10;;;;;;;;;;;;;;;10.13;100.00;102409.91;5116876;28;19919;-48
2023/10/04 05:11:36;;;;;;;;;;;;;;;10.10;100.00;102402.03;5117635;28;19911;-47
2023/10/04 05:14:05;;;;;;;;;;;;;;;10.09;100.00;102413.13;5117387;28;19919;-48
2023/10/04 05:16:30;;;;;;;;;;;;;;;10.06;100.00;102418.13;5116160;28;20002;-44
2023/10/04 05:18:56;;;;;;;;;;;;;;;10.03;100.00;102438.53;5117149;28;19947;-48
2023/10/04 05:21:21;;;;;;;;;;;;;;;10.00;100.00;102452.13;5117025;28;19919;-49
2023/10/04 05:23:46;;;;;;;;;;;;;;;9.99;100.00;102446.88;5116263;28;19911;-49
2023/10/04 05:26:12;;;;;;;;;;;;;;;9.97;100.00;102441.66;5116901;28;19912;-49
2023/10/04 05:28:38;;;;;;;;;;;;;;;9.95;100.00;102447.50;5116970;28;20366;-48
2023/10/04 05:31:03;;;;;;;;;;;;;;;9.93;100.00;102444.84;5115948;28;19918;-48
2023/10/04 05:33:28;;;;;;;;;;;;;;;9.92;100.00;102440.50;5116421;28;20313;-48
2023/10/04 05:35:55;;;;;;;;;;;;;;;9.90;100.00;102431.78;5116579;28;20014;-47
2023/10/04 05:38:20;;;;;;;;;;;;;;;9.87;100.00;102437.66;5116673;28;19908;-49
2023/10/04 05:40:49;;;;;;;;;;;;;;;9.87;100.00;102447.06;5116704;28;19912;-47
2023/10/04 05:43:16;;;;;;;;;;;;;;;9.85;100.00;102449.56;5115629;28;19916;-46
2023/10/04 05:45:42;;;;;;;;;;;;;;;9.83;100.00;102451.16;5116693;28;19953;-47
2023/10/04 05:48:09;;;;;;;;;;;;;;;9.82;100.00;102454.50;5116553;28;19939;-49
2023/10/04 05:50:34;;;;;;;;;;;;;;;9.80;100.00;102461.28;5115247;28;19966;-48
2023/10/04 05:53:01;;;;;;;;;;;;;;;9.78;100.00;102468.00;5116491;28;19943;-47
2023/10/04 05:55:27;;;;;;;;;;;;;;;9.78;100.00;102460.28;5116086;28;20018;-48
2023/10/04 05:57:52;;;;;;;;;;;;;;;9.77;100.00;102463.66;5115485;28;20345;-46
2023/10/04 06:02:53;;;;;;;;;;;;;;;9.76;100.00;102472.19;5116489;28;19918;-45
2023/10/04 06:05:23;;;;;;;;;;;;;;;9.76;100.00;102467.06;5115316;28;20010;-44
2023/10/04 06:07:49;;;;;;;;;;;;;;;9.76;100.00;102464.47;5116323;28;20002;-46
2023/10/04 06:10:15;;;;;;;;;;;;;;;9.77;100.00;102470.50;5115746;28;19957;-45
2023/10/04 06:12:40;;;;;;;;;;;;;;;9.77;100.00;102475.66;5115352;28;19937;-47
2023/10/04 06:15:10;;;;;;;;;;;;;;;9.76;100.00;102474.78;5115979;28;20333;-49
2023/10/04 06:17:38;;;;;;;;;;;;;;;9.78;100.00;102482.59;5116145;28;19977;-45
2023/10/04 06:20:22;;;;;;;;;;;;;;;9.78;100.00;102482.59;5115236;28;19911;-48
2023/10/04 06:22:47;;;;;;;;;;;;;;;9.79;100.00;102484.38;5116117;28;19911;-48
2023/10/04 06:25:13;;;;;;;;;;;;;;;9.79;100.00;102485.25;5114852;28;19918;-48
2023/10/04 06:27:38;;;;;;;;;;;;;;;9.79;100.00;102490.41;5115820;28;19912;-47
2023/10/04 06:30:04;;;;;;;;;;;;;;;9.81;100.00;102488.81;5115847;28;19977;-49
2023/10/04 06:32:29;;;;;;;;;;;;;;;9.83;100.00;102481.19;5114838;28;19962;-45
2023/10/04 06:34:55;;;;;;;;;;;;;;;9.84;100.00;102488.97;5115816;28;20294;-47
2023/10/04 06:37:20;;;;;;;;;;;;;;;9.86;100.00;102497.69;5115315;28;19912;-48
2023/10/04 06:39:45;;;;;;;;;;;;;;;9.88;100.00;102498.66;5114750;28;20290;-45
2023/10/04 06:42:11;;;;;;;;;;;;;;;9.89;100.00;102497.00;5115280;28;19923;-45
2023/10/04 06:44:36;;;;;;;;;;;;;;;9.93;100.00;102500.59;5115692;28;20383;-48
2023/10/04 06:47:01;;;;;;;;;;;;;;;9.96;100.00;102504.25;5114736;28;19915;-49
2023/10/04 06:49:26;;;;;;;;;;;;;;;10.00;100.00;102500.19;5115333;28;19919;-47
2023/10/04 06:51:52;;;;;;;;;;;;;;;10.03;100.00;102502.94;5115377;28;19912;-49
2023/10/04 06:54:17;;;;;;;;;;;;;;;10.07;100.00;102502.34;5114260;28;20385;-47
2023/10/04 06:56:44;;;;;;;;;;;;;;;10.10;100.00;102507.66;5114960;28;20422;-48
2023/10/04 06:59:09;;;;;;;;;;;;;;;10.17;100.00;102507.22;5115002;28;20436;-47
2023/10/04 07:01:35;;;;;;;;;;;;;;;10.20;100.00;102502.22;5114150;28;19911;-45
2023/10/04 07:04:00;;;;;;;;;;;;;;;10.27;100.00;102507.75;5115141;28;19916;-45
2023/10/04 07:06:26;;;;;;;;;;;;;;;10.32;100.00;102508.91;5114326;28;20016;-47
2023/10/04 07:08:52;;;;;;;;;;;;;;;10.38;100.00;102509.28;5114120;28;19923;-47
2023/10/04 07:11:17;;;;;;;;;;;;;;;10.45;100.00;102501.09;5114530;28;19911;-49
2023/10/04 07:13:43;;;;;;;;;;;;;;;10.53;100.00;102506.69;5115143;28;19918;-46
2023/10/04 07:16:08;;;;;;;;;;;;;;;10.61;100.00;102507.97;5114308;28;19912;-46
2023/10/04 07:18:33;;;;;;;;;;;;;;;10.69;100.00;102511.00;5114592;28;20298;-47
2023/10/04 07:20:59;;;;;;;;;;;;;;;10.80;100.00;102504.75;5114949;28;19934;-48
2023/10/04 07:23:24;;;;;;;;;;;;;;;10.89;100.00;102516.41;5113709;28;20313;-48
2023/10/04 07:25:49;;;;;;;;;;;;;;;10.98;100.00;102514.31;5114628;28;20378;-48
2023/10/04 07:28:15;;;;;;;;;;;;;;;11.08;100.00;102514.00;5114340;28;19918;-49
2023/10/04 07:30:40;;;;;;;;;;;;;;;11.15;100.00;102510.06;5113719;28;19912;-49
2023/10/04 07:33:07;;;;;;;;;;;;;;;11.24;100.00;102520.00;5114691;28;19912;-47
2023/10/04 07:35:33;;;;;;;;;;;;;;;11.32;100.00;102516.13;5113342;28;19916;-48
2023/10/04 07:37:59;;;;;;;;;;;;;;;11.41;100.00;102519.19;5114743;28;19919;-49
2023/10/04 07:40:25;;;;;;;;;;;;;;;11.51;100.00;102518.00;5114018;28;19925;-46
2023/10/04 07:42:53;;;;;;;;;;;;;;;11.60;100.00;102531.38;5113442;28;20314;-48
2023/10/04 07:45:18;;;;;;;;;;;;;;;11.66;100.00;102523.09;5114237;28;19911;-48
2023/10/04 07:47:45;;;;;;;;;;;;;;;11.71;100.00;102524.22;5114353;28;19917;-48
2023/10/04 07:50:11;;;;;;;;;;;;;;;11.81;100.00;102528.13;5113497;28;20003;-48
2023/10/04 07:52:37;;;;;;;;;;;;;;;11.91;100.00;102535.56;5114193;28;19990;-49
2023/10/04 07:55:05;;;;;;;;;;;;;;;12.02;100.00;102539.63;5114053;28;19915;-49
2023/10/04 07:57:31;;;;;;;;;;;;;;;12.16;100.00;102535.16;5112936;28;19995;-48
2023/10/04 07:59:56;;;;;;;;;;;;;;;12.29;100.00;102551.25;5114195;28;19998;-47
2023/10/04 08:02:21;;;;;;;;;;;;;;;12.44;100.00;102544.25;5113811;28;19920;-49
2023/10/04 08:04:48;;;;;;;;;;;;;;;12.61;100.00;102559.72;5113427;28;19960;-46
2023/10/04 08:07:15;;;;;;;;;;;;;;;12.73;100.00;102547.38;5113721;28;19918;-48
2023/10/04 08:09:41;;;;;;;;;;;;;;;12.84;100.00;102551.34;5113909;28;19912;-49
2023/10/04 08:12:07;;;;;;;;;;;;;;;12.91;100.00;102551.66;5113029;28;19918;-48
2023/10/04 08:14:32;;;;;;;;;;;;;;;12.98;100.00;102551.13;5113674;28;19919;-49
2023/10/04 08:16:58;;;;;;;;;;;;;;;13.02;100.00;102550.47;5113004;28;19941;-46
2023/10/04 08:19:24;;;;;;;;;;;;;;;13.09;100.00;102554.22;5112728;28;19953;-47
2023/10/04 08:21:49;;;;;;;;;;;;;;;13.15;100.00;102557.97;5113768;28;20282;-48
2023/10/04 08:24:14;;;;;;;;;;;;;;;13.18;100.00;102559.81;5113368;28;19908;-48
2023/10/04 08:26:40;;;;;;;;;;;;;;;13.18;100.00;102550.38;5113116;28;20252;-48
2023/10/04 08:29:05;;;;;;;;;;;;;;;13.21;100.00;102566.84;5113783;28;20073;-47
2023/10/04 08:31:32;;;;;;;;;;;;;;;13.24;100.00;102562.69;5113285;28;20034;-48
2023/10/04 08:33:58;;;;;;;;;;;;;;;13.28;100.00;102563.72;5112905;28;20002;-49
2023/10/04 08:36:23;;;;;;;;;;;;;;;13.27;100.00;102562.84;5113255;28;19962;-46
2023/10/04 08:38:48;;;;;;;;;;;;;;;13.30;100.00;102567.28;5112567;28;20424;-45
2023/10/04 08:41:16;;;;;;;;;;;;;;;13.35;100.00;102570.97;5113279;28;19918;-48
2023/10/04 08:43:41;;;;;;;;;;;;;;;13.49;100.00;102580.28;5113459;28;19914;-49
2023/10/04 08:46:09;;;;;;;;;;;;;;;13.60;100.00;102567.81;5112764;28;20321;-49
2023/10/04 08:48:34;;;;;;;;;;;;;;;13.67;100.00;102576.72;5113200;28;19912;-49
2023/10/04 08:51:08;;;;;;;;;;;;;;;13.68;100.00;102575.06;5113336;28;20278;-46
2023/10/04 08:53:47;;;;;;;;;;;;;;;13.67;100.00;102574.16;5112401;28;20422;-48
2023/10/04 08:56:18;;;;;;;;;;;;;;;13.73;100.00;102570.97;5113342;28;19936;-49
2023/10/04 08:58:44;;;;;;;;;;;;;;;13.87;100.00;102576.75;5113389;28;20357;-49
2023/10/04 09:01:11;;;;;;;;;;;;;;;14.00;100.00;102571.28;5112619;28;19918;-49
2023/10/04 09:03:38;;;;;;;;;;;;;;;14.11;100.00;102570.03;5113412;28;19912;-48
2023/10/04 09:06:05;;;;;;;;;;;;;;;14.27;100.00;102575.88;5113203;28;19912;-47
2023/10/04 09:08:30;;;;;;;;;;;;;;;14.29;100.00;102576.81;5112109;28;20359;-49
2023/10/04 09:10:56;;;;;;;;;;;;;;;14.35;100.00;102579.66;5113378;28;19918;-49
2023/10/04 09:13:22;;;;;;;;;;;;;;;14.45;100.00;102576.63;5113190;28;19911;-46
2023/10/04 09:15:48;;;;;;;;;;;;;;;14.56;100.00;102573.59;5112631;28;19912;-49
2023/10/04 09:18:23;;;;;;;;;;;;;;;14.63;100.00;102573.91;5113399;28;19911;-49
2023/10/04 09:20:48;;;;;;;;;;;;;;;14.67;100.00;102572.34;5113423;28;19957;-48
2023/10/04 09:23:22;;;;;;;;;;;;;;;14.70;100.00;102569.00;5112292;28;19916;-48
2023/10/04 09:25:47;;;;;;;;;;;;;;;14.82;100.00;102564.28;5113300;28;19912;-49
2023/10/04 09:28:12;;;;;;;;;;;;;;;14.88;100.00;102563.66;5112726;28;19961;-45
2023/10/04 09:30:37;;;;;;;;;;;;;;;15.01;100.00;102565.00;5116978;28;19919;-49
2023/10/04 09:33:32;;;;;;;;;;;;;;;15.23;100.00;102558.94;5116819;28;20283;-46
2023/10/04 09:35:57;;;;;;;;;;;;;;;15.63;100.00;102558.69;5110411;28;19912;-49
2023/10/04 09:38:25;;;;;;;;;;;;;;;15.88;100.00;102563.91;5116574;28;19911;-48
2023/10/04 09:40:55;;;;;;;;;;;;;;;16.12;100.00;102569.06;5117188;28;19912;-49
2023/10/04 09:43:32;;;;;;;;;;;;;;;16.32;100.00;102574.97;5115485;28;19912;-48
2023/10/04 09:45:57;;;;;;;;;;;;;;;16.52;100.00;102579.94;5116944;28;19965;-50
2023/10/04 09:48:25;;;;;;;;;;;;;;;16.59;100.00;102568.88;5116335;28;19912;-48
2023/10/04 09:50:57;;;;;;;;;;;;;;;16.63;100.00;102573.38;5115887;28;19919;-50
2023/10/04 09:53:22;;;;;;;;;;;;;;;16.61;100.00;102572.44;5116137;28;20271;-49
2023/10/04 09:55:48;;;;;;;;;;;;;;;16.49;100.00;102574.63;5116463;28;20389;-49
2023/10/04 09:58:14;;;;;;;;;;;;;;;16.45;100.00;102564.13;5115155;28;19915;-49
2023/10/04 10:00:39;;;;;;;;;;;;;;;16.41;100.00;102566.56;5116473;28;19919;-48
2023/10/04 10:03:08;;;;;;;;;;;;;;;16.17;100.00;102569.25;5116546;28;19912;-49
2023/10/04 10:05:34;;;;;;;;;;;;;;;16.12;100.00;102567.34;5115560;28;20366;-48
2023/10/04 10:08:04;;;;;;;;;;;;;;;16.19;100.00;102570.16;5116274;28;19912;-51
2023/10/04 10:10:32;;;;;;;;;;;;;;;16.16;100.00;102585.69;5115084;28;19967;-50
2023/10/04 10:12:59;;;;;;;;;;;;;;;16.17;100.00;102579.66;5116342;28;19911;-51
2023/10/04 10:15:24;;;;;;;;;;;;;;;16.25;100.00;102591.19;5115937;28;19918;-50
2023/10/04 10:17:51;;;;;;;;;;;;;;;16.28;100.00;102588.69;5115472;28;20006;-49
2023/10/04 10:20:19;;;;;;;;;;;;;;;16.13;100.00;102589.94;5115667;28;19965;-46
2023/10/04 10:22:57;;;;;;;;;;;;;;;16.11;100.00;102593.31;5115915;28;20003;-50
2023/10/04 10:25:22;;;;;;;;;;;;;;;16.26;100.00;102582.56;5114750;28;20408;-48
2023/10/04 10:27:48;;;;;;;;;;;;;;;16.48;100.00;102578.94;5116037;28;19912;-49
2023/10/04 10:30:16;;;;;;;;;;;;;;;16.68;98.98;102574.41;5115342;28;20366;-47
2023/10/04 10:32:54;;;;;;;;;;;;;;;16.64;100.00;102582.94;5115035;28;19912;-49
2023/10/04 10:36:06;;;;;;;;;;;;;;;16.62;99.05;102579.41;5115647;28;19918;-47
2023/10/04 10:38:40;;;;;;;;;;;;;;;16.56;99.11;102576.59;5114714;28;20336;-48
2023/10/04 10:41:05;;;;;;;;;;;;;;;16.58;100.00;102580.16;5114899;28;19957;-46
2023/10/04 10:43:31;;;;;;;;;;;;;;;16.77;100.00;102573.78;5115156;28;19923;-46
2023/10/04 10:45:57;;;;;;;;;;;;;;;17.00;93.85;102574.53;5114637;28;19970;-48
2023/10/04 10:48:33;;;;;;;;;;;;;;;17.21;93.28;102573.41;5115163;28;19986;-50
2023/10/04 10:50:59;;;;;;;;;;;;;;;17.43;95.96;102570.63;5115353;28;19957;-48
2023/10/04 10:53:25;;;;;;;;;;;;;;;17.70;93.08;102569.63;5114166;28;20358;-46
2023/10/04 10:55:51;;;;;;;;;;;;;;;17.92;95.96;102564.97;5115292;28;19958;-46
2023/10/04 10:58:16;;;;;;;;;;;;;;;18.00;89.05;102573.03;5114714;28;19947;-47
2023/10/04 11:00:41;;;;;;;;;;;;;;;17.87;88.96;102571.78;5114287;28;19957;-49
2023/10/04 11:03:10;;;;;;;;;;;;;;;17.72;87.60;102567.06;5115390;28;19911;-47
2023/10/04 11:05:35;;;;;;;;;;;;;;;17.75;84.67;102561.91;5115064;28;20256;-49
2023/10/04 11:08:04;;;;;;;;;;;;;;;17.80;86.40;102562.06;5114183;28;20378;-49
2023/10/04 11:10:33;;;;;;;;;;;;;;;17.78;83.76;102552.47;5114617;28;19911;-48
2023/10/04 11:13:02;;;;;;;;;;;;;;;17.84;84.00;102548.25;5114954;28;19912;-49
2023/10/04 11:15:27;;;;;;;;;;;;;;;17.91;83.78;102552.81;5113943;28;19998;-48
2023/10/04 11:17:53;;;;;;;;;;;;;;;17.86;79.53;102543.97;5114742;28;20371;-49
2023/10/04 11:20:18;;;;;;;;;;;;;;;17.76;81.77;102535.00;5114771;28;19918;-48
2023/10/04 11:22:45;;;;;;;;;;;;;;;17.71;80.50;102541.81;5114189;28;19918;-48
2023/10/04 11:25:12;;;;;;;;;;;;;;;17.74;83.41;102540.19;5114844;28;19947;-49
2023/10/04 11:27:41;;;;;;;;;;;;;;;17.88;85.59;102537.06;5113126;28;19918;-50
2023/10/04 11:30:10;;;;;;;;;;;;;;;17.98;80.50;102544.31;5114834;28;19957;-49
2023/10/04 11:32:37;;;;;;;;;;;;;;;17.91;80.96;102537.16;5114326;28;19954;-48
2023/10/04 11:35:08;;;;;;;;;;;;;;;17.82;80.33;102542.09;5113871;28;20118;-50
2023/10/04 11:37:33;;;;;;;;;;;;;;;17.60;79.73;102529.38;5114314;28;19922;-49
2023/10/04 11:39:59;;;;;;;;;;;;;;;17.41;82.19;102534.91;5114438;28;19911;-48
2023/10/04 11:42:25;;;;;;;;;;;;;;;17.26;82.04;102522.31;5113253;28;19918;-45
2023/10/04 11:44:50;;;;;;;;;;;;;;;17.25;85.65;102515.38;5114476;28;20359;-47
2023/10/04 11:47:28;;;;;;;;;;;;;;;17.36;85.96;102518.28;5114156;28;19957;-49
2023/10/04 11:49:55;;;;;;;;;;;;;;;17.35;81.55;102520.00;5113582;28;19911;-47
2023/10/04 11:52:21;;;;;;;;;;;;;;;17.32;83.02;102519.91;5113606;28;19912;-49
2023/10/04 11:54:47;;;;;;;;;;;;;;;17.27;83.90;102521.50;5114142;28;19916;-49
2023/10/04 11:57:23;;;;;;;;;;;;;;;17.19;85.04;102518.66;5113131;28;20003;-49
2023/10/04 11:59:48;;;;;;;;;;;;;;;17.20;86.34;102514.34;5114062;28;20447;-48
2023/10/04 12:02:13;;;;;;;;;;;;;;;17.23;85.40;102520.50;5113762;28;19990;-49
2023/10/04 12:04:38;;;;;;;;;;;;;;;17.34;88.66;102518.22;5113176;28;20302;-47
2023/10/04 12:07:04;;;;;;;;;;;;;;;17.49;85.63;102516.88;5114011;28;20294;-48
2023/10/04 12:09:36;;;;;;;;;;;;;;;17.47;85.44;102513.34;5113515;28;19911;-47
2023/10/04 12:12:03;;;;;;;;;;;;;;;17.29;83.93;102514.63;5113107;28;20379;-49
2023/10/04 12:14:31;;;;;;;;;;;;;;;17.26;86.68;102510.19;5113761;28;19934;-48
2023/10/04 12:16:56;;;;;;;;;;;;;;;17.19;84.42;102505.63;5113134;28;19912;-49
2023/10/04 12:19:22;;;;;;;;;;;;;;;17.11;85.41;102507.16;5113475;28;19912;-49
2023/10/04 12:21:47;;;;;;;;;;;;;;;17.07;86.61;102500.97;5113767;28;20010;-49
2023/10/04 12:24:12;;;;;;;;;;;;;;;16.93;84.39;102494.47;5112510;28;19915;-50
2023/10/04 12:26:37;;;;;;;;;;;;;;;16.89;87.75;102497.78;5113666;28;19963;-49
2023/10/04 12:29:04;;;;;;;;;;;;;;;16.89;85.69;102498.66;5114114;28;19969;-47
2023/10/04 12:31:30;;;;;;;;;;;;;;;16.88;88.10;102503.84;5112568;28;19918;-49